Time;durP1;ratioP1;P1;durP2;ratioP2;P2;SDS_P1;SDS_P2;PMS_P1;PMS_P2;Temp;Humidity;BMP_temperature;BMP_pressure;BME280_temperature;BME280_humidity;BME280_pressure;Samples;Min_cycle;Max_cycle;Signal;HPM_P1;HPM_P2
2021/07/18 00:01:18;;;;;;;;;;;;;;;-142.75;68.46;77448.34;5027381;28;19924;-80
2021/07/18 00:03:43;;;;;;;;;;;;;;;-142.75;68.34;77456.22;5018582;28;19921;-79
2021/07/18 00:06:08;;;;;;;;;;;;;;;-142.75;68.20;77466.03;5010284;28;19971;-79
2021/07/18 00:08:33;;;;;;;;;;;;;;;-142.75;68.27;77487.72;5027878;28;19924;-80
2021/07/18 00:10:58;;;;;;;;;;;;;;;-142.75;68.51;77487.72;5028089;28;19917;-79
2021/07/18 00:13:24;;;;;;;;;;;;;;;-142.75;69.01;77495.59;5028283;28;20386;-80
2021/07/18 00:15:49;;;;;;;;;;;;;;;-142.75;69.23;77495.59;5028438;28;19979;-78
2021/07/18 00:18:15;;;;;;;;;;;;;;;-142.75;69.37;77491.66;5011106;28;19917;-79
2021/07/18 00:20:40;;;;;;;;;;;;;;;-142.75;68.88;77505.44;5027742;28;19952;-79
2021/07/18 00:23:05;;;;;;;;;;;;;;;-142.75;69.47;77521.19;5010333;28;19984;-79
2021/07/18 00:25:32;;;;;;;;;;;;;;;-142.75;69.66;77533.00;5027677;28;19964;-79
2021/07/18 00:27:58;;;;;;;;;;;;;;;-142.75;69.83;77546.78;5028016;28;19917;-79
2021/07/18 00:30:23;;;;;;;;;;;;;;;-142.75;69.94;77548.75;5027523;28;19924;-80
2021/07/18 00:32:48;;;;;;;;;;;;;;;-142.75;69.83;77552.69;5009944;28;19925;-79
2021/07/18 00:35:13;;;;;;;;;;;;;;;-142.75;70.00;77556.63;5027832;28;20361;-79
2021/07/18 00:37:39;;;;;;;;;;;;;;;-142.75;70.37;77566.47;5027735;28;20276;-80
2021/07/18 00:40:05;;;;;;;;;;;;;;;-142.75;70.40;77572.38;5027481;28;19917;-80
2021/07/18 00:42:30;;;;;;;;;;;;;;;-142.75;70.89;77572.38;5026488;28;19921;-80
2021/07/18 00:44:56;;;;;;;;;;;;;;;-142.75;71.07;77572.38;5027663;28;19924;-80
2021/07/18 00:47:21;;;;;;;;;;;;;;;-142.75;71.69;77552.69;5025314;28;20342;-80
2021/07/18 00:49:48;;;;;;;;;;;;;;;-142.75;71.03;77550.72;5027779;28;19978;-80
2021/07/18 00:52:13;;;;;;;;;;;;;;;-142.75;70.96;77542.84;5024872;28;20014;-80
2021/07/18 00:54:38;;;;;;;;;;;;;;;-142.75;70.43;77538.91;5027538;28;19952;-80
2021/07/18 00:57:05;;;;;;;;;;;;;;;-142.75;71.47;77515.28;5009497;28;19918;-79
2021/07/18 00:59:30;;;;;;;;;;;;;;;-142.75;69.74;77525.13;5027673;28;19917;-80
2021/07/18 01:01:56;;;;;;;;;;;;;;;-142.75;69.73;77554.66;5027243;28;19917;-80
2021/07/18 01:04:21;;;;;;;;;;;;;;;-142.75;70.40;77568.44;5019351;28;19917;-81
2021/07/18 01:06:47;;;;;;;;;;;;;;;-142.75;70.21;77582.22;5027424;28;19975;-80
2021/07/18 01:09:12;;;;;;;;;;;;;;;-142.75;70.81;77590.09;5027704;28;20391;-80
2021/07/18 01:11:37;;;;;;;;;;;;;;;-142.75;71.62;77601.91;5025992;28;19924;-80
2021/07/18 01:14:03;;;;;;;;;;;;;;;-142.75;71.83;77617.66;5028824;28;19963;-79
2021/07/18 01:16:28;;;;;;;;;;;;;;;-142.75;71.64;77625.53;5031681;28;21935;-79
2021/07/18 01:18:53;;;;;;;;;;;;;;;-142.75;71.91;77631.44;5029897;28;20602;-79
2021/07/18 01:21:22;;;;;;;;;;;;;;;-142.75;72.02;77635.38;5029542;28;19925;-80
2021/07/18 01:23:47;;;;;;;;;;;;;;;-142.75;72.27;77633.41;5013295;28;19960;-80
2021/07/18 01:26:13;;;;;;;;;;;;;;;-142.75;72.24;77629.47;5028681;28;19953;-80
2021/07/18 01:28:38;;;;;;;;;;;;;;;-142.75;72.36;77623.56;5031150;28;20480;-79
2021/07/18 01:31:03;;;;;;;;;;;;;;;-142.75;73.13;77621.59;5030866;28;19917;-80
2021/07/18 01:33:28;;;;;;;;;;;;;;;-142.75;72.79;77617.66;5014297;28;19917;-79
2021/07/18 01:35:53;;;;;;;;;;;;;;;-142.75;72.79;77617.66;5013094;28;20362;-79
2021/07/18 01:38:19;;;;;;;;;;;;;;;-142.75;72.52;77617.66;5030995;28;20421;-78
2021/07/18 01:40:44;;;;;;;;;;;;;;;-142.75;72.73;77615.69;5019264;28;19917;-79
2021/07/18 01:43:09;;;;;;;;;;;;;;;-142.75;72.39;77619.63;5031307;28;19921;-78
2021/07/18 01:45:35;;;;;;;;;;;;;;;-142.75;71.90;77629.47;5021097;28;19917;-78
2021/07/18 01:48:01;;;;;;;;;;;;;;;-142.75;73.12;77603.88;5013903;28;20303;-79
2021/07/18 01:50:26;;;;;;;;;;;;;;;-142.75;73.09;77603.88;5030347;28;20020;-78
2021/07/18 01:52:53;;;;;;;;;;;;;;;-142.75;72.40;77609.78;5030744;28;20396;-78
2021/07/18 01:55:22;;;;;;;;;;;;;;;-142.75;72.65;77621.59;5014057;28;19924;-79
2021/07/18 01:57:48;;;;;;;;;;;;;;;-142.75;72.97;77631.44;5031156;28;20329;-79
2021/07/18 02:00:13;;;;;;;;;;;;;;;-142.75;73.03;77637.34;5030401;28;19917;-79
2021/07/18 02:02:43;;;;;;;;;;;;;;;-142.75;73.37;77633.41;5030637;28;22348;-79
2021/07/18 02:05:08;;;;;;;;;;;;;;;-142.75;73.29;77631.44;5031119;28;19918;-79
2021/07/18 02:07:33;;;;;;;;;;;;;;;-142.75;72.90;77637.34;5013321;28;19917;-79
2021/07/18 02:09:59;;;;;;;;;;;;;;;-142.75;72.87;77633.41;5016858;28;19924;-79
2021/07/18 02:12:24;;;;;;;;;;;;;;;-142.75;73.64;77613.72;5022130;28;19923;-79
2021/07/18 02:14:49;;;;;;;;;;;;;;;-142.75;73.68;77613.72;5030654;28;19940;-79
2021/07/18 02:17:14;;;;;;;;;;;;;;;-142.75;73.57;77617.66;5014088;28;20383;-78
2021/07/18 02:19:40;;;;;;;;;;;;;;;-142.75;74.26;77603.88;5031869;28;19921;-79
2021/07/18 02:22:05;;;;;;;;;;;;;;;-142.75;74.66;77586.16;5031277;28;19924;-78
2021/07/18 02:24:30;;;;;;;;;;;;;;;-142.75;74.86;77576.31;5032062;28;19917;-78
2021/07/18 02:26:55;;;;;;;;;;;;;;;-142.75;74.85;77570.41;5030519;28;19924;-78
2021/07/18 02:29:21;;;;;;;;;;;;;;;-142.75;74.79;77564.50;5032559;28;19921;-78
2021/07/18 02:31:46;;;;;;;;;;;;;;;-142.75;74.71;77558.59;5032151;28;20382;-78
2021/07/18 02:34:11;;;;;;;;;;;;;;;-142.75;74.50;77550.72;5031561;28;19921;-78
2021/07/18 02:36:36;;;;;;;;;;;;;;;-142.75;74.42;77552.69;5032221;28;19965;-79
2021/07/18 02:39:02;;;;;;;;;;;;;;;-142.75;74.44;77550.72;5032764;28;19920;-77
2021/07/18 02:41:27;;;;;;;;;;;;;;;-142.75;74.43;77544.81;5029824;28;19917;-78
2021/07/18 02:43:53;;;;;;;;;;;;;;;-142.75;74.38;77542.84;5021320;28;19991;-79
2021/07/18 02:46:19;;;;;;;;;;;;;;;-142.75;74.54;77540.88;5029736;28;20342;-79
2021/07/18 02:48:44;;;;;;;;;;;;;;;-142.75;74.31;77546.78;5033097;28;19924;-79
2021/07/18 02:51:09;;;;;;;;;;;;;;;-142.75;74.21;77548.75;5031203;28;19917;-78
2021/07/18 02:53:34;;;;;;;;;;;;;;;-142.75;74.21;77542.84;5033390;28;19917;-78
2021/07/18 02:56:00;;;;;;;;;;;;;;;-142.75;74.30;77542.84;5032298;28;19924;-78
2021/07/18 02:58:25;;;;;;;;;;;;;;;-142.75;74.29;77542.84;5030517;28;19918;-78
2021/07/18 03:00:51;;;;;;;;;;;;;;;-142.75;74.35;77542.84;5032044;28;19917;-79
2021/07/18 03:03:17;;;;;;;;;;;;;;;-142.75;74.37;77542.84;5027385;28;19927;-77
2021/07/18 03:05:42;;;;;;;;;;;;;;;-142.75;74.26;77540.88;5033224;28;19920;-78
2021/07/18 03:08:08;;;;;;;;;;;;;;;-142.75;74.17;77544.81;5032375;28;19924;-78
2021/07/18 03:10:33;;;;;;;;;;;;;;;-142.75;74.23;77540.88;5014608;28;19917;-78
2021/07/18 03:12:58;;;;;;;;;;;;;;;-142.75;74.14;77536.94;5032889;28;19917;-78
2021/07/18 03:15:23;;;;;;;;;;;;;;;-142.75;74.26;77536.94;5018915;28;19918;-77
2021/07/18 03:17:49;;;;;;;;;;;;;;;-142.75;74.14;77538.91;5017457;28;20430;-78
2021/07/18 03:20:15;;;;;;;;;;;;;;;-142.75;73.24;77556.63;5020706;28;20008;-79
2021/07/18 03:22:41;;;;;;;;;;;;;;;-142.75;73.64;77568.44;5033406;28;20312;-79
2021/07/18 03:25:07;;;;;;;;;;;;;;;-142.75;73.47;77574.34;5014407;28;19924;-78
2021/07/18 03:27:33;;;;;;;;;;;;;;;-142.75;73.28;77594.03;5015475;28;19924;-79
2021/07/18 03:29:58;;;;;;;;;;;;;;;-142.75;73.22;77605.84;5032887;28;19923;-79
2021/07/18 03:32:23;;;;;;;;;;;;;;;-142.75;73.66;77613.72;5033496;28;20003;-79
2021/07/18 03:34:48;;;;;;;;;;;;;;;-142.75;73.51;77625.53;5033073;28;19917;-78
2021/07/18 03:37:14;;;;;;;;;;;;;;;-142.75;73.46;77637.34;5014786;28;19917;-79
2021/07/18 03:39:39;;;;;;;;;;;;;;;-142.75;73.58;77637.34;5033987;28;19917;-78
2021/07/18 03:42:04;;;;;;;;;;;;;;;-142.75;73.75;77637.34;5033711;28;20016;-79
2021/07/18 03:44:29;;;;;;;;;;;;;;;-142.75;74.35;77633.41;5015123;28;19917;-78
2021/07/18 03:46:54;;;;;;;;;;;;;;;-142.75;74.53;77631.44;5033593;28;19917;-79
2021/07/18 03:49:20;;;;;;;;;;;;;;;-142.75;74.72;77633.41;5033972;28;19924;-79
2021/07/18 03:51:45;;;;;;;;;;;;;;;-142.75;74.98;77631.44;5014971;28;21598;-79
2021/07/18 03:54:10;;;;;;;;;;;;;;;-142.75;74.86;77629.47;5034138;28;19924;-78
2021/07/18 03:56:35;;;;;;;;;;;;;;;-142.75;75.02;77625.53;5020254;28;19917;-78
2021/07/18 03:59:00;;;;;;;;;;;;;;;-142.75;74.98;77623.56;5034138;28;20291;-79
2021/07/18 04:01:26;;;;;;;;;;;;;;;-142.75;75.05;77625.53;5023800;28;19924;-78
2021/07/18 04:03:51;;;;;;;;;;;;;;;-142.75;74.95;77625.53;5015916;28;20021;-79
2021/07/18 04:06:16;;;;;;;;;;;;;;;-142.75;74.63;77617.66;5021058;28;20384;-80
2021/07/18 04:08:42;;;;;;;;;;;;;;;-142.75;74.31;77617.66;5032334;28;19974;-79
2021/07/18 04:11:07;;;;;;;;;;;;;;;-142.75;74.12;77617.66;5031183;28;19921;-79
2021/07/18 04:13:32;;;;;;;;;;;;;;;-142.75;74.22;77613.72;5031785;28;19917;-79
2021/07/18 04:15:58;;;;;;;;;;;;;;;-142.75;73.94;77609.78;5032284;28;19917;-79
2021/07/18 04:18:23;;;;;;;;;;;;;;;-142.75;73.72;77611.75;5015336;28;21152;-79
2021/07/18 04:20:48;;;;;;;;;;;;;;;-142.75;73.64;77609.78;5020758;28;19925;-79
2021/07/18 04:23:14;;;;;;;;;;;;;;;-142.75;73.68;77601.91;5027456;28;19929;-79
2021/07/18 04:25:39;;;;;;;;;;;;;;;-142.75;73.92;77590.09;5014799;28;19917;-79
2021/07/18 04:28:04;;;;;;;;;;;;;;;-142.75;73.63;77582.22;5031224;28;19917;-77
2021/07/18 04:30:30;;;;;;;;;;;;;;;-142.75;73.45;77582.22;5031692;28;19952;-78
2021/07/18 04:32:55;;;;;;;;;;;;;;;-142.75;73.10;77578.28;5032253;28;20422;-78
2021/07/18 04:35:21;;;;;;;;;;;;;;;-142.75;72.69;77582.22;5032513;28;20485;-79
2021/07/18 04:37:46;;;;;;;;;;;;;;;-142.75;72.82;77582.22;5015005;28;19917;-80
2021/07/18 04:40:12;;;;;;;;;;;;;;;-142.75;73.37;77580.25;5033065;28;21276;-80
2021/07/18 04:42:38;;;;;;;;;;;;;;;-142.75;73.57;77572.38;5035754;28;19925;-79
2021/07/18 04:45:03;;;;;;;;;;;;;;;-142.75;73.65;77566.47;5015745;28;19929;-80
2021/07/18 04:47:28;;;;;;;;;;;;;;;-142.75;73.84;77550.72;5034914;28;19940;-78
2021/07/18 04:49:54;;;;;;;;;;;;;;;-142.75;73.49;77534.97;5037717;28;19917;-78
2021/07/18 04:52:19;;;;;;;;;;;;;;;-142.75;73.29;77533.00;5038302;28;19948;-77
2021/07/18 04:54:44;;;;;;;;;;;;;;;-142.75;73.22;77531.03;5040131;28;19917;-77
2021/07/18 04:57:10;;;;;;;;;;;;;;;-142.75;73.58;77525.13;5039415;28;19917;-78
2021/07/18 04:59:35;;;;;;;;;;;;;;;-142.75;73.81;77519.22;5040240;28;20389;-77
2021/07/18 05:02:00;;;;;;;;;;;;;;;-142.75;74.01;77499.53;5019678;28;20017;-77
2021/07/18 05:04:25;;;;;;;;;;;;;;;-142.75;73.89;77487.72;5040099;28;19924;-77
2021/07/18 05:06:51;;;;;;;;;;;;;;;-142.75;73.59;77468.03;5036602;28;19992;-78
2021/07/18 05:09:16;;;;;;;;;;;;;;;-142.75;73.34;77460.13;5020668;28;19956;-79
2021/07/18 05:11:43;;;;;;;;;;;;;;;-142.75;73.07;77444.38;5037699;28;20198;-79
2021/07/18 05:14:08;;;;;;;;;;;;;;;-142.75;72.74;77432.56;5038840;28;19955;-78
2021/07/18 05:16:33;;;;;;;;;;;;;;;-142.75;72.73;77414.84;5037136;28;20434;-79
2021/07/18 05:18:58;;;;;;;;;;;;;;;-142.75;72.30;77393.19;5036697;28;19918;-78
2021/07/18 05:21:24;;;;;;;;;;;;;;;-142.75;71.99;77377.44;5033158;28;20004;-79
2021/07/18 05:23:49;;;;;;;;;;;;;;;-142.75;71.67;77365.63;5032846;28;19943;-79
2021/07/18 05:26:14;;;;;;;;;;;;;;;-142.75;71.20;77351.84;5033034;28;19939;-79
2021/07/18 05:28:39;;;;;;;;;;;;;;;-142.75;70.92;77326.25;5032513;28;19995;-78
2021/07/18 05:31:04;;;;;;;;;;;;;;;-142.75;70.70;77306.56;5024877;28;19917;-78
2021/07/18 05:33:30;;;;;;;;;;;;;;;-142.75;70.33;77286.88;5027155;28;19917;-77
2021/07/18 05:35:55;;;;;;;;;;;;;;;-142.75;69.72;77267.19;5017534;28;19921;-78
2021/07/18 05:38:20;;;;;;;;;;;;;;;-142.75;69.10;77247.50;5031084;28;19917;-77
2021/07/18 05:40:45;;;;;;;;;;;;;;;-142.75;68.85;77217.97;5030733;28;19917;-77
2021/07/18 05:43:10;;;;;;;;;;;;;;;-142.75;68.23;77186.47;5030951;28;19921;-76
2021/07/18 05:45:36;;;;;;;;;;;;;;;-142.75;67.47;77156.94;5030382;28;19952;-78
2021/07/18 05:48:01;;;;;;;;;;;;;;;-142.75;66.92;77133.31;5032552;28;19943;-78
2021/07/18 05:50:26;;;;;;;;;;;;;;;-142.75;66.54;77115.59;5031020;28;19963;-78
2021/07/18 05:52:52;;;;;;;;;;;;;;;-142.75;65.74;77090.00;5030559;28;19921;-78
2021/07/18 05:55:17;;;;;;;;;;;;;;;-142.75;64.33;77054.56;5030317;28;20335;-77
2021/07/18 05:57:42;;;;;;;;;;;;;;;-142.75;63.64;77021.09;5030482;28;19921;-80
2021/07/18 06:00:08;;;;;;;;;;;;;;;-142.75;62.67;76983.69;5028643;28;19983;-78
2021/07/18 06:02:34;;;;;;;;;;;;;;;-142.75;61.43;76944.31;5020321;28;20403;-79
2021/07/18 06:04:59;;;;;;;;;;;;;;;-142.75;60.31;76901.00;5030280;28;19917;-80
2021/07/18 06:07:24;;;;;;;;;;;;;;;-142.75;59.66;76875.41;5030396;28;19949;-78
2021/07/18 06:09:49;;;;;;;;;;;;;;;-142.75;58.85;76838.00;5030161;28;19972;-78
2021/07/18 06:12:14;;;;;;;;;;;;;;;-142.75;58.00;76800.63;5030402;28;19917;-77
2021/07/18 06:14:41;;;;;;;;;;;;;;;-142.75;56.58;76767.16;5028732;28;19951;-79
2021/07/18 06:17:06;;;;;;;;;;;;;;;-142.75;57.01;76727.78;5030191;28;19917;-80
2021/07/18 06:19:32;;;;;;;;;;;;;;;-142.75;55.88;76700.22;5030478;28;19947;-80
2021/07/18 06:21:57;;;;;;;;;;;;;;;-142.75;54.67;76688.41;5012288;28;19918;-79
2021/07/18 06:24:22;;;;;;;;;;;;;;;-142.75;55.07;76664.78;5029797;28;19928;-79
2021/07/18 06:26:47;;;;;;;;;;;;;;;-142.75;53.79;76625.41;5029746;28;19924;-79
2021/07/18 06:29:13;;;;;;;;;;;;;;;-142.75;53.38;76597.84;5027144;28;19983;-79
2021/07/18 06:31:38;;;;;;;;;;;;;;;-142.75;52.39;76550.59;5029386;28;20468;-80
2021/07/18 06:34:03;;;;;;;;;;;;;;;-142.75;52.00;76536.84;5029820;28;20333;-79
2021/07/18 06:36:28;;;;;;;;;;;;;;;-142.75;51.55;76523.06;5021716;28;19917;-79
2021/07/18 06:38:55;;;;;;;;;;;;;;;-142.75;50.91;76505.34;5029549;28;19917;-79
2021/07/18 06:41:20;;;;;;;;;;;;;;;-142.75;50.67;76469.91;5029303;28;19921;-79
2021/07/18 06:43:45;;;;;;;;;;;;;;;-142.75;49.96;76442.34;5029509;28;19921;-80
2021/07/18 06:46:10;;;;;;;;;;;;;;;-142.75;49.53;76428.56;5012903;28;19925;-79
2021/07/18 06:48:35;;;;;;;;;;;;;;;-142.75;49.62;76410.84;5030958;28;20267;-79
2021/07/18 06:51:01;;;;;;;;;;;;;;;-142.75;48.81;76375.41;5029834;28;19956;-79
2021/07/18 06:53:26;;;;;;;;;;;;;;;-142.75;49.25;76322.28;5029901;28;19970;-79
2021/07/18 06:55:51;;;;;;;;;;;;;;;-142.75;47.78;76286.84;5011369;28;19928;-80
2021/07/18 06:58:16;;;;;;;;;;;;;;;-142.75;46.12;76241.56;5030133;28;19917;-80
2021/07/18 07:00:41;;;;;;;;;;;;;;;-142.75;46.77;76200.25;5028994;28;19932;-79
2021/07/18 07:03:07;;;;;;;;;;;;;;;-142.75;45.79;76168.75;5029342;28;19928;-79
2021/07/18 07:05:32;;;;;;;;;;;;;;;-142.75;45.59;76145.13;5029227;28;19920;-79
2021/07/18 07:07:57;;;;;;;;;;;;;;;-142.75;44.64;76113.63;5021027;28;20012;-80
2021/07/18 07:10:22;;;;;;;;;;;;;;;-142.75;44.04;76070.34;5028945;28;19917;-79
2021/07/18 07:12:48;;;;;;;;;;;;;;;-142.75;43.46;76044.75;5028782;28;19923;-81
2021/07/18 07:15:14;;;;;;;;;;;;;;;-142.75;43.72;76032.94;5029365;28;19917;-80
2021/07/18 07:17:39;;;;;;;;;;;;;;;-142.75;43.24;75979.78;5029859;28;20356;-80
2021/07/18 07:20:05;;;;;;;;;;;;;;;-142.75;42.09;75940.44;5029561;28;20407;-79
2021/07/18 07:22:31;;;;;;;;;;;;;;;-142.75;42.12;75924.69;5029027;28;19975;-80
2021/07/18 07:24:56;;;;;;;;;;;;;;;-142.75;41.51;75883.34;5029561;28;19940;-80
2021/07/18 07:27:21;;;;;;;;;;;;;;;-142.75;40.79;75885.31;5031026;28;19932;-79
2021/07/18 07:29:46;;;;;;;;;;;;;;;-142.75;41.11;75853.84;5028123;28;19917;-80
2021/07/18 07:32:11;;;;;;;;;;;;;;;-142.75;40.02;75804.63;5029228;28;19928;-80
2021/07/18 07:34:37;;;;;;;;;;;;;;;-142.75;39.45;75808.56;5011840;28;19949;-80
2021/07/18 07:37:02;;;;;;;;;;;;;;;-142.75;39.78;75737.72;5029977;28;19921;-79
2021/07/18 07:39:27;;;;;;;;;;;;;;;-142.75;39.93;75716.06;5025423;28;19925;-81
2021/07/18 07:41:52;;;;;;;;;;;;;;;-142.75;38.90;75668.84;5028906;28;19932;-80
2021/07/18 07:44:18;;;;;;;;;;;;;;;-142.75;38.62;75623.56;5029081;28;20303;-79
2021/07/18 07:46:43;;;;;;;;;;;;;;;-142.75;38.26;75590.13;5029328;28;19921;-79
2021/07/18 07:49:09;;;;;;;;;;;;;;;-142.75;37.09;75568.47;5029742;28;20018;-80
2021/07/18 07:51:34;;;;;;;;;;;;;;;-142.75;37.15;75546.81;5029010;28;19917;-80
2021/07/18 07:53:59;;;;;;;;;;;;;;;-142.75;36.52;75505.50;5030140;28;19921;-81
2021/07/18 07:56:25;;;;;;;;;;;;;;;-142.75;35.52;75475.97;5029364;28;19924;-80
2021/07/18 07:58:50;;;;;;;;;;;;;;;-142.75;35.86;75472.03;5030130;28;20355;-79
2021/07/18 08:01:15;;;;;;;;;;;;;;;-142.75;35.42;75418.91;5029581;28;20371;-79
2021/07/18 08:03:40;;;;;;;;;;;;;;;-142.75;34.71;75413.00;5030061;28;19931;-80
2021/07/18 08:06:06;;;;;;;;;;;;;;;-142.75;34.62;75359.88;5029109;28;19917;-80
2021/07/18 08:08:31;;;;;;;;;;;;;;;-142.75;34.54;75357.91;5029908;28;19917;-79
2021/07/18 08:10:57;;;;;;;;;;;;;;;-142.75;34.32;75322.47;5022285;28;19917;-80
2021/07/18 08:13:23;;;;;;;;;;;;;;;-142.75;34.64;75320.50;5011360;28;20390;-79
2021/07/18 08:15:48;;;;;;;;;;;;;;;-142.75;34.02;75318.53;5029694;28;19917;-79
2021/07/18 08:18:13;;;;;;;;;;;;;;;-142.75;33.69;75231.94;5030131;28;19917;-79
2021/07/18 08:20:38;;;;;;;;;;;;;;;-142.75;33.00;75222.13;5028663;28;20003;-80
2021/07/18 08:23:04;;;;;;;;;;;;;;;-142.75;33.32;75170.94;5017373;28;20400;-80
2021/07/18 08:25:29;;;;;;;;;;;;;;;-142.75;33.07;75125.69;5033049;28;19920;-82
2021/07/18 08:27:54;;;;;;;;;;;;;;;-142.75;31.94;75098.16;5031885;28;19917;-80
2021/07/18 08:30:20;;;;;;;;;;;;;;;-142.75;31.42;75102.06;5028205;28;19917;-78
2021/07/18 08:32:45;;;;;;;;;;;;;;;-142.75;31.72;75141.44;5033363;28;19917;-79
2021/07/18 08:35:10;;;;;;;;;;;;;;;-142.75;31.72;75123.72;5031213;28;20297;-79
2021/07/18 08:37:36;;;;;;;;;;;;;;;-142.75;31.70;75137.50;5033567;28;19921;-79
2021/07/18 08:40:03;;;;;;;;;;;;;;;-142.75;32.19;75127.66;5031454;28;20331;-79
2021/07/18 08:42:28;;;;;;;;;;;;;;;-142.75;31.01;75094.22;5032975;28;19948;-79
2021/07/18 08:44:57;;;;;;;;;;;;;;;-142.75;31.53;75086.34;5034179;28;19960;-80
2021/07/18 08:47:22;;;;;;;;;;;;;;;-142.75;31.95;75139.47;5027769;28;19956;-80
2021/07/18 08:49:47;;;;;;;;;;;;;;;-142.75;31.98;75088.31;5033253;28;19952;-79
2021/07/18 08:52:12;;;;;;;;;;;;;;;-142.75;31.65;75039.13;5033394;28;20012;-81
2021/07/18 08:54:38;;;;;;;;;;;;;;;-142.75;31.21;74989.91;5026719;28;19921;-79
2021/07/18 08:57:03;;;;;;;;;;;;;;;-142.75;30.42;74960.41;5015438;28;20390;-77
2021/07/18 08:59:29;;;;;;;;;;;;;;;-142.75;30.97;74968.28;5034784;28;19917;-80
2021/07/18 09:01:54;;;;;;;;;;;;;;;-142.75;30.29;74940.72;5035051;28;19992;-78
2021/07/18 09:04:20;;;;;;;;;;;;;;;-142.75;29.40;74940.72;5035338;28;19967;-80
2021/07/18 09:06:49;;;;;;;;;;;;;;;-142.75;30.46;74936.78;5034878;28;19956;-79
2021/07/18 09:09:15;;;;;;;;;;;;;;;-142.75;29.77;74913.19;5034227;28;19921;-79
2021/07/18 09:11:41;;;;;;;;;;;;;;;-142.75;29.45;74913.19;5022276;28;19917;-80
2021/07/18 09:14:07;;;;;;;;;;;;;;;-142.75;29.22;74887.59;5035136;28;19917;-82
2021/07/18 09:16:39;;;;;;;;;;;;;;;-142.75;28.89;74924.97;5034510;28;20063;-80
2021/07/18 09:19:21;;;;;;;;;;;;;;;-142.75;30.10;74960.41;5033978;28;20002;-80
2021/07/18 09:22:06;;;;;;;;;;;;;;;-142.75;29.71;74946.63;5034169;28;20008;-80
2021/07/18 09:24:38;;;;;;;;;;;;;;;-142.75;29.75;74917.13;5034378;28;20302;-79
2021/07/18 09:27:17;;;;;;;;;;;;;;;-142.75;29.85;74854.16;5035670;28;19970;-81
2021/07/18 09:29:42;;;;;;;;;;;;;;;-142.75;29.09;74814.78;5033710;28;19921;-79
2021/07/18 09:32:09;;;;;;;;;;;;;;;-142.75;29.65;74799.06;5032029;28;20425;-80
2021/07/18 09:34:36;;;;;;;;;;;;;;;-142.75;29.57;74826.59;5034596;28;19921;-79
2021/07/18 09:37:02;;;;;;;;;;;;;;;-142.75;28.56;74801.03;5034272;28;20390;-81
2021/07/18 09:39:28;;;;;;;;;;;;;;;-142.75;28.59;74783.31;5035955;28;19952;-82
2021/07/18 09:41:57;;;;;;;;;;;;;;;-142.75;28.58;74759.72;5033711;28;19921;-80
2021/07/18 09:44:22;;;;;;;;;;;;;;;-142.75;28.52;74771.50;5033132;28;19925;-80
2021/07/18 09:46:48;;;;;;;;;;;;;;;-142.75;28.24;74767.56;5031657;28;19924;-80
2021/07/18 09:49:29;;;;;;;;;;;;;;;-142.75;28.33;74795.13;5025506;28;20375;-79
2021/07/18 09:52:10;;;;;;;;;;;;;;;-142.75;28.40;74738.06;5033317;28;20008;-82
2021/07/18 09:54:35;;;;;;;;;;;;;;;-142.75;28.97;74761.66;5033161;28;19917;-81
2021/07/18 09:57:01;;;;;;;;;;;;;;;-142.75;28.65;74726.25;5016025;28;19917;-80
2021/07/18 09:59:26;;;;;;;;;;;;;;;-142.75;26.87;74700.69;5034883;28;20615;-80
2021/07/18 10:01:54;;;;;;;;;;;;;;;-142.75;27.93;74702.66;5015557;28;20584;-81
2021/07/18 10:04:19;;;;;;;;;;;;;;;-142.75;27.20;74681.00;5033820;28;19927;-80
2021/07/18 10:06:44;;;;;;;;;;;;;;;-142.75;27.23;74700.69;5016232;28;19917;-81
2021/07/18 10:09:12;;;;;;;;;;;;;;;-142.75;27.92;74771.50;5034841;28;19917;-80
2021/07/18 10:11:37;;;;;;;;;;;;;;;-142.75;27.09;74820.69;5015339;28;20387;-82
2021/07/18 10:14:05;;;;;;;;;;;;;;;-142.75;28.75;74830.53;5034022;28;20008;-81
2021/07/18 10:16:32;;;;;;;;;;;;;;;-142.75;27.88;74767.56;5033203;28;20391;-81
2021/07/18 10:18:57;;;;;;;;;;;;;;;-142.75;28.73;74763.63;5033260;28;20012;-80
2021/07/18 10:21:23;;;;;;;;;;;;;;;-142.75;28.68;74818.72;5033222;28;19944;-80
2021/07/18 10:23:52;;;;;;;;;;;;;;;-142.75;28.30;74834.47;5032743;28;20007;-81
2021/07/18 10:26:25;;;;;;;;;;;;;;;-142.75;28.27;74771.50;5015338;28;19920;-77
2021/07/18 10:28:51;;;;;;;;;;;;;;;-142.75;28.43;74771.50;5032061;28;19917;-79
2021/07/18 10:31:20;;;;;;;;;;;;;;;-142.75;28.31;74732.16;5032760;28;19936;-81
2021/07/18 10:33:47;;;;;;;;;;;;;;;-142.75;28.65;74724.28;5033079;28;19917;-80
2021/07/18 10:36:12;;;;;;;;;;;;;;;-142.75;28.27;74708.53;5032580;28;20018;-79
2021/07/18 10:38:38;;;;;;;;;;;;;;;-142.75;27.89;74681.00;5032599;28;19916;-80
2021/07/18 10:41:03;;;;;;;;;;;;;;;-142.75;28.27;74657.38;5020573;28;20437;-80
2021/07/18 10:43:47;;;;;;;;;;;;;;;-142.75;28.27;74669.19;5032978;28;19928;-81
2021/07/18 10:46:13;;;;;;;;;;;;;;;-142.75;27.65;74649.53;5014455;28;19928;-79
2021/07/18 10:48:42;;;;;;;;;;;;;;;-142.75;26.76;74663.28;5033641;28;20294;-79
2021/07/18 10:51:08;;;;;;;;;;;;;;;-142.75;26.75;74696.75;5033678;28;20436;-79
2021/07/18 10:53:34;;;;;;;;;;;;;;;-142.75;28.20;74694.78;5032338;28;19920;-80
2021/07/18 10:56:01;;;;;;;;;;;;;;;-142.75;27.82;74728.22;5033005;28;19917;-79
2021/07/18 10:58:38;;;;;;;;;;;;;;;-142.75;27.85;74714.44;5033437;28;19917;-81
2021/07/18 11:01:23;;;;;;;;;;;;;;;-142.75;27.39;74716.41;5030948;28;19924;-80
2021/07/18 11:03:49;;;;;;;;;;;;;;;-142.75;28.32;74765.59;5032327;28;19928;-80
2021/07/18 11:06:27;;;;;;;;;;;;;;;-142.75;27.64;74747.91;5032904;28;19917;-80
2021/07/18 11:09:12;;;;;;;;;;;;;;;-142.75;27.72;74814.78;5032474;28;20019;-80
2021/07/18 11:11:41;;;;;;;;;;;;;;;-142.75;27.30;74858.09;5031668;28;19978;-82
2021/07/18 11:14:24;;;;;;;;;;;;;;;-142.75;28.32;74881.69;5032827;28;19923;-81
2021/07/18 11:16:55;;;;;;;;;;;;;;;-142.75;28.30;74869.88;5022943;28;19925;-79
2021/07/18 11:19:35;;;;;;;;;;;;;;;-142.75;27.83;74889.56;5031333;28;19921;-80
2021/07/18 11:22:01;;;;;;;;;;;;;;;-142.75;27.87;74871.84;5032268;28;19924;-79
2021/07/18 11:24:45;;;;;;;;;;;;;;;-142.75;28.92;74889.56;5031853;28;19921;-77
2021/07/18 11:27:24;;;;;;;;;;;;;;;-142.75;28.87;74938.75;5031492;28;19917;-76
2021/07/18 11:29:49;;;;;;;;;;;;;;;-142.75;29.27;74940.72;5031024;28;19924;-78
2021/07/18 11:32:19;;;;;;;;;;;;;;;-142.75;28.43;74940.72;5025482;28;19922;-80
2021/07/18 11:34:45;;;;;;;;;;;;;;;-142.75;29.14;74911.22;5032199;28;19924;-80
2021/07/18 11:37:12;;;;;;;;;;;;;;;-142.75;28.98;75029.28;5014149;28;19931;-78
2021/07/18 11:39:37;;;;;;;;;;;;;;;-142.75;29.53;75039.13;5032307;28;20378;-80
2021/07/18 11:42:03;;;;;;;;;;;;;;;-142.75;29.21;75021.41;5032047;28;19928;-79
2021/07/18 11:44:30;;;;;;;;;;;;;;;-142.75;29.74;75046.97;5032184;28;20338;-81
2021/07/18 11:46:57;;;;;;;;;;;;;;;-142.75;29.88;75037.16;5013309;28;20418;-78
2021/07/18 11:49:25;;;;;;;;;;;;;;;-142.75;29.63;75078.47;5031243;28;19964;-78
2021/07/18 11:51:50;;;;;;;;;;;;;;;-142.75;30.59;75133.56;5031860;28;20343;-79
2021/07/18 11:54:16;;;;;;;;;;;;;;;-142.75;31.01;75157.19;5031887;28;19971;-79
2021/07/18 11:56:42;;;;;;;;;;;;;;;-142.75;30.17;75180.78;5028669;28;19921;-80
2021/07/18 11:59:10;;;;;;;;;;;;;;;-142.75;30.60;75204.41;5032135;28;19917;-79
2021/07/18 12:01:36;;;;;;;;;;;;;;;-142.75;31.09;75237.84;5027500;28;19917;-80
2021/07/18 12:04:03;;;;;;;;;;;;;;;-142.75;32.08;75283.13;5031526;28;19921;-80
2021/07/18 12:06:30;;;;;;;;;;;;;;;-142.75;32.91;75310.66;5012028;28;20007;-80
2021/07/18 12:08:56;;;;;;;;;;;;;;;-142.75;32.11;75353.97;5030935;28;19917;-79
2021/07/18 12:11:24;;;;;;;;;;;;;;;-142.75;32.63;75387.41;5029847;28;20390;-81
2021/07/18 12:13:50;;;;;;;;;;;;;;;-142.75;32.92;75403.16;5029201;28;20079;-78
2021/07/18 12:16:15;;;;;;;;;;;;;;;-142.75;34.11;75430.72;5029368;28;19917;-80
2021/07/18 12:18:44;;;;;;;;;;;;;;;-142.75;34.11;75448.41;5027512;28;20011;-79
2021/07/18 12:21:16;;;;;;;;;;;;;;;-142.75;34.34;75507.47;5028515;28;19924;-77
2021/07/18 12:23:41;;;;;;;;;;;;;;;-142.75;36.28;75546.81;5028381;28;19928;-79